This is the latest recevied weather packets stored in our database for station/object HS5HBQ-1. If no packets are shown the sender has not sent any weather packets the latest 10 day(s).
| Time | Temp. | Humidity | Pressure | Rain* | Wind** | Luminosity | Snow |
|---|---|---|---|---|---|---|---|
| 1777864194 | 33.89° C | 38% | 976 hPa | - | - | 0 W/m² | - |
| 1777863570 | 34.44° C | 36% | 976 hPa | - | - | 0 W/m² | - |
| 1777862945 | 33.33° C | 39% | 976 hPa | - | - | 0 W/m² | - |
| 1777862321 | 33.89° C | 39% | 976 hPa | - | - | 0 W/m² | - |
| 1777861697 | 33.89° C | 38% | 976 hPa | - | - | 0 W/m² | - |
| 1777861073 | 33.33° C | 40% | 976 hPa | - | - | 0 W/m² | - |
| 1777860449 | 32.78° C | 41% | 976 hPa | - | - | 0 W/m² | - |
| 1777859825 | 33.33° C | 41% | 976 hPa | - | - | 0 W/m² | - |
| 1777859201 | 33.33° C | 40% | 976 hPa | - | - | 0 W/m² | - |
| 1777858577 | 32.78° C | 42% | 976 hPa | - | - | 0 W/m² | - |
| 1777857952 | 33.33° C | 41% | 976 hPa | - | - | 0 W/m² | - |
| 1777857328 | 33.33° C | 41% | 976 hPa | - | - | 0 W/m² | - |
| 1777856704 | 32.78° C | 42% | 976 hPa | - | - | 0 W/m² | - |
| 1777856079 | 33.33° C | 41% | 976 hPa | - | - | 0 W/m² | - |
| 1777855454 | 32.78° C | 41% | 976 hPa | - | - | 0 W/m² | - |
| 1777854830 | 32.78° C | 41% | 975 hPa | - | - | 0 W/m² | - |
| 1777854206 | 32.78° C | 41% | 975 hPa | - | - | 0 W/m² | - |
| 1777853581 | 32.78° C | 41% | 975 hPa | - | - | 0 W/m² | - |
| 1777852957 | 32.78° C | 41% | 975 hPa | - | - | 0 W/m² | - |
| 1777852334 | 32.78° C | 41% | 975 hPa | - | - | 0 W/m² | - |
| 1777851709 | 32.78° C | 42% | 975 hPa | - | - | 0 W/m² | - |
| 1777851084 | 32.78° C | 41% | 975 hPa | - | - | 0 W/m² | - |
| 1777850460 | 33.33° C | 41% | 975 hPa | - | - | 0 W/m² | - |
| 1777849835 | 32.78° C | 42% | 975 hPa | - | - | 0 W/m² | - |
| 1777849210 | 32.78° C | 41% | 975 hPa | - | - | 0 W/m² | - |
* Rain since midnight (hover to see other rain measurements)
** Current wind speed in m/s (hover to see current wind gust speed)